Time;durP1;ratioP1;P1;durP2;ratioP2;P2;SDS_P1;SDS_P2;PMS_P1;PMS_P2;Temp;Humidity;BMP_temperature;BMP_pressure;BME280_temperature;BME280_humidity;BME280_pressure;Samples;Min_cycle;Max_cycle;Signal;HPM_P1;HPM_P2
2023/04/08 00:00:24;;;;;;;11.20;7.72;;;;;;;2.22;100.00;93149.44;2065850;28;20022;-88
2023/04/08 00:01:29;;;;;;;11.23;7.30;;;;;;;2.31;100.00;93152.53;2066257;28;20394;-88
2023/04/08 00:02:30;;;;;;;9.55;7.30;;;;;;;2.28;100.00;93153.25;2058290;28;20027;-89
2023/04/08 00:03:39;;;;;;;10.80;7.93;;;;;;;2.30;100.00;93153.69;2050016;28;20494;-90
2023/04/08 00:04:40;;;;;;;10.13;7.75;;;;;;;2.36;100.00;93152.22;2050932;28;20436;-89
2023/04/08 00:05:41;;;;;;;10.50;7.75;;;;;;;2.36;100.00;93152.22;2049455;28;20055;-88
2023/04/08 00:06:46;;;;;;;12.27;8.25;;;;;;;2.37;100.00;93145.84;2049958;28;20107;-89
2023/04/08 00:07:47;;;;;;;11.40;8.35;;;;;;;2.37;100.00;93152.97;2051341;28;20110;-88
2023/04/08 00:08:49;;;;;;;11.82;8.25;;;;;;;2.40;100.00;93154.88;2058506;28;20030;-88
2023/04/08 00:09:53;;;;;;;12.68;8.13;;;;;;;2.41;100.00;93151.13;2058883;28;20031;-88
2023/04/08 00:10:54;;;;;;;13.23;8.23;;;;;;;2.37;100.00;93151.13;2058104;28;20082;-89
2023/04/08 00:11:56;;;;;;;10.60;7.88;;;;;;;2.37;100.00;93147.69;2050786;28;20206;-90
2023/04/08 00:12:59;;;;;;;13.68;8.45;;;;;;;2.47;100.00;93147.06;2058313;28;20026;-88
2023/04/08 00:14:03;;;;;;;12.00;7.80;;;;;;;2.50;100.00;93149.72;2066005;28;20565;-89
2023/04/08 00:15:24;;;;;;;12.35;8.07;;;;;;;2.53;100.00;93142.94;2059564;28;20026;-88
2023/04/08 00:16:25;;;;;;;12.55;7.55;;;;;;;2.47;100.00;93145.16;2070597;28;20022;-88
2023/04/08 00:17:26;;;;;;;11.30;8.10;;;;;;;2.48;100.00;93149.31;2057509;28;20130;-89
2023/04/08 00:18:28;;;;;;;12.32;7.60;;;;;;;2.50;100.00;93149.72;2046019;28;20074;-88
2023/04/08 00:19:29;;;;;;;12.07;8.13;;;;;;;2.53;100.00;93153.50;2055384;28;20542;-89
2023/04/08 00:20:30;;;;;;;12.95;8.75;;;;;;;2.51;100.00;93153.88;2051763;28;20031;-88
2023/04/08 00:21:31;;;;;;;12.00;8.27;;;;;;;2.57;100.00;93151.66;2050969;28;20544;-89
2023/04/08 00:22:32;;;;;;;14.52;8.63;;;;;;;2.56;100.00;93152.03;2050692;28;20039;-89
2023/04/08 00:23:34;;;;;;;11.30;8.10;;;;;;;2.57;100.00;93156.94;2050512;29;20047;-88
2023/04/08 00:24:35;;;;;;;12.93;8.43;;;;;;;2.59;100.00;93151.28;2043032;28;20030;-87
2023/04/08 00:25:36;;;;;;;11.60;8.60;;;;;;;2.65;100.00;93144.56;2043145;28;20091;-88
2023/04/08 00:26:37;;;;;;;10.45;8.18;;;;;;;2.65;100.00;93142.69;2043478;28;20118;-87
2023/04/08 00:27:41;;;;;;;13.25;8.82;;;;;;;2.63;100.00;93146.81;2051763;28;20019;-88
2023/04/08 00:28:43;;;;;;;15.02;9.70;;;;;;;2.61;100.00;93146.41;2052412;28;20024;-87
2023/04/08 00:29:44;;;;;;;12.43;8.35;;;;;;;2.65;100.00;93147.22;2051238;28;20012;-88
2023/04/08 00:30:48;;;;;;;13.35;8.73;;;;;;;2.78;100.00;93143.91;2047769;28;20020;-88
2023/04/08 00:31:51;;;;;;;12.90;9.02;;;;;;;2.66;100.00;93136.28;2048727;28;20113;-89
2023/04/08 00:32:53;;;;;;;12.90;8.68;;;;;;;2.66;100.00;93138.91;2055232;28;20234;-88
2023/04/08 00:33:54;;;;;;;12.35;8.45;;;;;;;2.74;100.00;93137.84;2052951;28;20031;-88
2023/04/08 00:34:56;;;;;;;12.43;8.65;;;;;;;2.73;100.00;93136.34;2059308;28;20038;-89
2023/04/08 00:35:59;;;;;;;11.48;7.93;;;;;;;2.73;100.00;93140.88;2066730;28;20047;-88
2023/04/08 00:37:05;;;;;;;11.48;8.48;;;;;;;2.69;100.00;93145.34;2064852;28;20022;-88
2023/04/08 00:38:12;;;;;;;13.23;9.10;;;;;;;2.69;100.00;93138.19;2055464;28;20027;-89
2023/04/08 00:39:14;;;;;;;11.63;8.50;;;;;;;2.70;100.00;93138.94;2049414;28;20035;-88
2023/04/08 00:40:16;;;;;;;11.80;8.18;;;;;;;2.71;100.00;93137.81;2044317;29;20063;-89
2023/04/08 00:41:19;;;;;;;14.90;8.80;;;;;;;2.71;100.00;93135.94;2047938;28;20031;-88
2023/04/08 00:42:21;;;;;;;14.75;9.10;;;;;;;2.74;100.00;93137.84;2050030;29;20027;-88
2023/04/08 00:43:23;;;;;;;12.88;9.27;;;;;;;2.72;100.00;93134.84;2046350;29;20079;-88
2023/04/08 00:44:27;;;;;;;13.15;8.75;;;;;;;2.74;100.00;93135.22;2044459;28;20055;-91
2023/04/08 00:45:28;;;;;;;14.45;9.27;;;;;;;2.75;100.00;93142.00;2055869;28;20022;-88
2023/04/08 00:46:34;;;;;;;13.23;9.27;;;;;;;2.74;100.00;93137.84;2040831;28;20047;-89
2023/04/08 00:47:35;;;;;;;13.32;9.02;;;;;;;2.77;100.00;93145.06;2050754;28;20087;-87
2023/04/08 00:48:40;;;;;;;13.77;9.18;;;;;;;2.78;100.00;93140.53;2039544;29;20060;-88
2023/04/08 00:49:42;;;;;;;12.85;8.70;;;;;;;2.81;100.00;93139.81;2050756;28;20135;-88
2023/04/08 00:50:45;;;;;;;13.23;9.20;;;;;;;2.78;100.00;93141.28;2050699;28;20503;-88
2023/04/08 00:51:47;;;;;;;12.60;8.57;;;;;;;2.84;100.00;93143.59;2043242;28;20114;-88
2023/04/08 00:52:51;;;;;;;14.85;9.02;;;;;;;2.87;100.00;93140.22;2054193;28;20026;-90
2023/04/08 00:53:55;;;;;;;12.68;8.45;;;;;;;2.85;100.00;93142.44;2061962;28;20026;-88
2023/04/08 00:55:00;;;;;;;13.15;9.15;;;;;;;2.83;100.00;93142.81;2045198;28;20088;-88
2023/04/08 00:56:10;;;;;;;13.38;9.48;;;;;;;2.88;100.00;93147.00;2049990;29;20027;-89
2023/04/08 00:57:11;;;;;;;13.90;8.50;;;;;;;2.88;100.00;93142.47;2036947;28;20423;-87
2023/04/08 00:58:16;;;;;;;13.77;8.88;;;;;;;2.95;100.00;93141.78;2045867;28;20036;-88
2023/04/08 00:59:17;;;;;;;12.23;9.23;;;;;;;2.96;100.00;93144.06;2049596;29;20035;-88
2023/04/08 01:00:18;;;;;;;13.45;9.23;;;;;;;3.04;100.00;93150.16;2043016;28;20060;-91
2023/04/08 01:01:42;;;;;;;15.35;9.50;;;;;;;2.95;100.00;93147.06;2050339;28;20014;-88
2023/04/08 01:03:19;;;;;;;11.82;8.40;;;;;;;2.92;100.00;93140.63;2052708;28;20031;-88
2023/04/08 01:04:50;;;;;;;18.40;10.05;;;;;;;2.90;100.00;93142.88;2051311;28;20073;-88
2023/04/08 01:06:16;;;;;;;15.13;8.80;;;;;;;2.89;100.00;93143.25;2057820;28;20018;-88
2023/04/08 01:07:24;;;;;;;14.88;9.00;;;;;;;2.87;100.00;93140.97;2045361;29;20027;-89
2023/04/08 01:08:28;;;;;;;14.73;8.65;;;;;;;2.87;100.00;93140.97;2042221;28;20027;-90
2023/04/08 01:09:34;;;;;;;15.95;9.32;;;;;;;2.87;100.00;93140.97;2046335;28;20033;-87
2023/04/08 01:10:41;;;;;;;14.02;9.35;;;;;;;2.88;100.00;93142.47;2052578;28;20022;-88
2023/04/08 01:11:50;;;;;;;14.30;9.63;;;;;;;2.88;100.00;93141.72;2047717;28;20046;-88
2023/04/08 01:12:58;;;;;;;14.98;8.70;;;;;;;2.90;100.00;93139.50;2044557;28;20502;-87
2023/04/08 01:14:05;;;;;;;18.27;9.20;;;;;;;2.88;100.00;93141.72;2050091;28;20066;-88
2023/04/08 01:15:10;;;;;;;16.38;9.15;;;;;;;2.89;100.00;93138.72;2042959;29;20031;-89
2023/04/08 01:16:17;;;;;;;14.35;9.55;;;;;;;2.88;100.00;93139.84;2043041;28;20023;-91
2023/04/08 01:17:24;;;;;;;13.32;9.10;;;;;;;2.88;100.00;93145.13;2059042;28;20026;-89
2023/04/08 01:18:25;;;;;;;14.00;9.43;;;;;;;2.92;100.00;93148.56;2050729;28;20038;-89
2023/04/08 01:19:30;;;;;;;15.02;9.63;;;;;;;2.92;100.00;93143.28;2044172;28;20102;-88
2023/04/08 01:20:35;;;;;;;14.63;8.75;;;;;;;2.90;100.00;93145.53;2050662;28;20085;-88
2023/04/08 01:21:37;;;;;;;13.60;8.85;;;;;;;2.90;100.00;93142.88;2052816;28;20027;-87
2023/04/08 01:23:00;;;;;;;16.33;9.68;;;;;;;2.93;100.00;93147.41;2048863;28;20117;-87
2023/04/08 01:24:22;;;;;;;17.10;10.25;;;;;;;2.80;100.00;93143.53;2064370;28;20034;-87
2023/04/08 01:25:30;;;;;;;15.77;9.30;;;;;;;2.80;100.00;93140.91;2057257;28;20025;-87
2023/04/08 01:26:34;;;;;;;14.55;9.20;;;;;;;2.89;100.00;93140.59;2059324;28;20139;-87
2023/04/08 01:27:37;;;;;;;14.40;9.10;;;;;;;2.87;100.00;93138.34;2056300;28;20016;-88
2023/04/08 01:28:58;;;;;;;17.67;9.68;;;;;;;2.84;100.00;93138.31;2049588;28;20487;-88
2023/04/08 01:30:04;;;;;;;14.35;9.02;;;;;;;2.85;100.00;93140.56;2062856;28;20545;-87
2023/04/08 01:31:07;;;;;;;18.42;10.10;;;;;;;2.84;100.00;93138.31;2078634;28;20099;-87
2023/04/08 01:32:11;;;;;;;18.60;10.25;;;;;;;2.86;100.00;93134.19;2052208;28;20091;-87
2023/04/08 01:33:17;;;;;;;14.52;9.35;;;;;;;2.91;100.00;93141.00;2050969;28;20012;-88
2023/04/08 01:34:20;;;;;;;16.33;10.45;;;;;;;2.91;100.00;93143.66;2057389;28;20092;-87
2023/04/08 01:35:23;;;;;;;16.13;10.00;;;;;;;2.91;100.00;93141.00;2062453;28;20050;-87
2023/04/08 01:36:25;;;;;;;17.17;9.75;;;;;;;2.89;100.00;93132.69;2063821;28;20029;-87
2023/04/08 01:37:29;;;;;;;15.88;9.45;;;;;;;2.90;100.00;93139.50;2059954;28;20053;-87
2023/04/08 01:38:33;;;;;;;19.73;10.52;;;;;;;2.85;100.00;93142.44;2052144;28;20038;-87
2023/04/08 01:39:35;;;;;;;14.63;9.10;;;;;;;2.89;100.00;93146.63;2057794;28;20026;-88
2023/04/08 01:40:41;;;;;;;18.98;9.85;;;;;;;2.92;100.00;93140.63;2053631;28;20023;-87
2023/04/08 01:41:43;;;;;;;18.73;9.07;;;;;;;2.92;100.00;93143.28;2050638;28;20023;-89
2023/04/08 01:42:46;;;;;;;16.13;9.35;;;;;;;2.92;100.00;93140.63;2058698;28;20023;-88
2023/04/08 01:43:52;;;;;;;17.45;10.02;;;;;;;2.91;100.00;93136.47;2049915;28;20024;-89
2023/04/08 01:44:56;;;;;;;17.27;9.77;;;;;;;2.91;100.00;93139.13;2053828;28;20031;-88
2023/04/08 01:46:01;;;;;;;15.95;9.80;;;;;;;2.94;100.00;93142.91;2053698;28;20027;-89
2023/04/08 01:47:06;;;;;;;17.45;9.52;;;;;;;2.94;100.00;93137.63;2057756;28;20046;-88
2023/04/08 01:48:09;;;;;;;16.02;9.55;;;;;;;2.94;100.00;93140.25;2050764;28;20030;-89
2023/04/08 01:49:12;;;;;;;16.70;9.43;;;;;;;2.89;100.00;93136.06;2054409;28;20051;-89
2023/04/08 01:50:15;;;;;;;17.67;9.98;;;;;;;2.95;100.00;93145.19;2050572;28;20062;-89
2023/04/08 01:51:38;;;;;;;21.40;9.77;;;;;;;2.99;100.00;93138.06;2055251;28;20110;-88
2023/04/08 01:52:45;;;;;;;15.98;8.85;;;;;;;2.98;100.00;93136.50;2060889;28;20511;-88
2023/04/08 01:53:50;;;;;;;13.88;8.75;;;;;;;3.00;100.00;93141.44;2046809;28;20486;-88
2023/04/08 01:54:55;;;;;;;15.68;9.30;;;;;;;3.03;100.00;93144.13;2041388;29;20118;-88
2023/04/08 01:56:09;;;;;;;17.48;9.63;;;;;;;3.01;100.00;93137.69;2056225;28;20078;-88
2023/04/08 01:57:21;;;;;;;17.55;10.23;;;;;;;2.99;100.00;93148.63;2067856;28;20022;-88
2023/04/08 01:58:26;;;;;;;16.27;10.00;;;;;;;2.92;100.00;93137.25;2051484;28;20526;-88
2023/04/08 01:59:33;;;;;;;14.40;9.35;;;;;;;2.94;100.00;93137.63;2063558;28;20026;-88
2023/04/08 02:00:37;;;;;;;16.45;10.00;;;;;;;2.94;100.00;93143.69;2065864;28;20030;-88
2023/04/08 02:01:40;;;;;;;15.18;9.27;;;;;;;2.95;100.00;93139.16;2047124;28;20083;-88
2023/04/08 02:02:43;;;;;;;15.90;9.75;;;;;;;2.95;100.00;93142.53;2050386;28;20420;-89
2023/04/08 02:03:46;;;;;;;16.17;10.18;;;;;;;2.94;100.00;93138.41;2062428;28;20045;-89
2023/04/08 02:05:07;;;;;;;18.10;10.00;;;;;;;2.93;100.00;93142.13;2051471;28;20074;-88
2023/04/08 02:06:10;;;;;;;13.05;8.82;;;;;;;2.93;100.00;93134.22;2043133;28;20037;-88
2023/04/08 02:07:12;;;;;;;15.75;9.50;;;;;;;2.96;100.00;93138.78;2049839;28;20109;-90
2023/04/08 02:08:14;;;;;;;15.52;9.48;;;;;;;2.92;100.00;93140.63;2042442;28;20038;-88
2023/04/08 02:09:16;;;;;;;14.02;9.40;;;;;;;2.95;100.00;93136.50;2046215;28;20476;-88
2023/04/08 02:10:20;;;;;;;17.75;10.57;;;;;;;2.96;100.00;93136.13;2050470;28;20105;-89
2023/04/08 02:11:22;;;;;;;14.48;9.35;;;;;;;2.97;100.00;93135.00;2048037;28;20495;-89
2023/04/08 02:12:24;;;;;;;19.52;10.32;;;;;;;2.94;100.00;93138.41;2040981;28;20067;-89
2023/04/08 02:13:26;;;;;;;15.60;10.00;;;;;;;2.89;100.00;93141.34;2044040;28;20449;-88
2023/04/08 02:14:28;;;;;;;18.40;10.50;;;;;;;2.94;100.00;93135.75;2047298;28;20067;-89
2023/04/08 02:15:35;;;;;;;17.23;10.80;;;;;;;2.93;100.00;93138.75;2051112;28;20028;-89
2023/04/08 02:16:45;;;;;;;16.20;10.20;;;;;;;2.93;100.00;93139.50;2048803;28;20452;-88
2023/04/08 02:17:49;;;;;;;;;;;;;;;2.96;100.00;93138.78;2056419;28;20423;-90
2023/04/08 02:31:44;;;;;;;21.35;12.05;;;;;;;3.00;100.00;93142.19;5259307;21;20470;-83
2023/04/08 02:32:48;;;;;;;20.85;12.25;;;;;;;3.12;100.00;93145.69;2597886;22;20015;-84
2023/04/08 02:33:51;;;;;;;21.27;11.70;;;;;;;3.13;100.00;93149.84;2573901;22;20008;-83
2023/04/08 02:34:53;;;;;;;20.92;11.30;;;;;;;3.17;100.00;93145.34;2585829;22;20016;-82
2023/04/08 02:35:56;;;;;;;21.13;11.82;;;;;;;3.11;100.00;93146.78;2585427;22;20008;-82
2023/04/08 02:36:58;;;;;;;19.40;11.43;;;;;;;3.16;100.00;93149.88;2585823;22;20004;-83
2023/04/08 02:37:59;;;;;;;17.80;11.07;;;;;;;3.18;100.00;93150.25;2572855;22;20035;-83
2023/04/08 02:39:00;;;;;;;18.80;11.43;;;;;;;3.10;100.00;93147.91;2572425;22;20054;-83
2023/04/08 02:40:01;;;;;;;18.13;11.23;;;;;;;3.15;100.00;93152.84;2572896;23;20011;-84
2023/04/08 02:41:02;;;;;;;18.75;11.75;;;;;;;3.14;100.00;93144.19;2585569;22;20038;-82
2023/04/08 02:42:04;;;;;;;19.50;11.77;;;;;;;3.11;100.00;93146.78;2572616;22;20078;-83
2023/04/08 02:43:07;;;;;;;21.30;11.35;;;;;;;3.14;100.00;93149.47;2598136;22;20389;-83
2023/04/08 02:44:09;;;;;;;19.48;12.05;;;;;;;3.14;100.00;93149.47;2598063;22;19999;-83
2023/04/08 02:45:11;;;;;;;19.65;11.70;;;;;;;3.16;100.00;93149.09;2573419;22;20039;-83
2023/04/08 02:46:13;;;;;;;21.20;11.55;;;;;;;3.24;100.00;93155.94;2572864;22;20066;-82
2023/04/08 02:47:14;;;;;;;18.02;11.60;;;;;;;3.24;100.00;93148.00;2572913;22;20012;-83
2023/04/08 02:48:15;;;;;;;19.17;11.18;;;;;;;3.27;100.00;93155.97;2572722;22;20012;-82
2023/04/08 02:49:16;;;;;;;16.83;10.43;;;;;;;3.30;100.00;93149.19;2585342;22;20062;-82
2023/04/08 02:50:17;;;;;;;18.50;11.55;;;;;;;3.29;100.00;93150.28;2585452;22;20012;-82
2023/04/08 02:51:18;;;;;;;18.83;10.82;;;;;;;3.47;100.00;93153.81;2585553;22;20007;-81
2023/04/08 02:52:20;;;;;;;18.85;11.10;;;;;;;3.38;100.00;93148.13;2572958;22;20000;-82
2023/04/08 02:53:22;;;;;;;21.40;10.68;;;;;;;3.33;100.00;93145.78;2572945;22;20083;-83
2023/04/08 02:54:23;;;;;;;17.55;11.00;;;;;;;3.26;100.00;93151.06;2573372;22;20057;-82
2023/04/08 02:55:24;;;;;;;18.38;11.70;;;;;;;3.25;100.00;93152.94;2573031;22;20446;-83
2023/04/08 02:56:25;;;;;;;18.80;11.45;;;;;;;3.21;100.00;93144.22;2572857;22;20024;-83
2023/04/08 02:57:27;;;;;;;17.25;10.93;;;;;;;3.21;100.00;93143.47;2585222;22;20004;-82
2023/04/08 02:58:28;;;;;;;18.13;11.32;;;;;;;3.23;100.00;93147.25;2598039;22;20008;-83
2023/04/08 02:59:29;;;;;;;16.23;11.32;;;;;;;3.17;100.00;93146.09;2585336;22;20003;-82
2023/04/08 03:00:30;;;;;;;20.30;11.73;;;;;;;3.18;100.00;93152.13;2572963;23;20012;-83
2023/04/08 03:01:31;;;;;;;17.33;10.75;;;;;;;3.17;100.00;93150.63;2572787;22;20009;-83
2023/04/08 03:02:32;;;;;;;22.83;12.70;;;;;;;3.20;100.00;93152.50;2572886;23;20039;-83
2023/04/08 03:03:33;;;;;;;19.02;11.02;;;;;;;3.15;100.00;93145.69;2584954;22;20011;-83
2023/04/08 03:04:34;;;;;;;20.75;12.82;;;;;;;3.21;100.00;93148.75;2572887;22;20428;-83
2023/04/08 03:05:35;;;;;;;19.13;12.13;;;;;;;3.28;100.00;93144.25;2573044;22;20037;-83
2023/04/08 03:06:36;;;;;;;19.30;11.00;;;;;;;3.26;100.00;93146.53;2572886;22;20000;-84
2023/04/08 03:07:37;;;;;;;19.35;11.93;;;;;;;3.35;100.00;93148.09;2572928;23;20028;-84
2023/04/08 03:08:38;;;;;;;18.90;11.70;;;;;;;3.29;100.00;93152.94;2572668;22;20364;-82
2023/04/08 03:09:39;;;;;;;17.30;11.27;;;;;;;3.26;100.00;93148.41;2585630;22;19996;-83
2023/04/08 03:10:41;;;;;;;17.77;10.70;;;;;;;3.23;100.00;93146.50;2585199;22;20110;-82
2023/04/08 03:11:43;;;;;;;17.33;11.20;;;;;;;3.18;100.00;93144.97;2572893;22;20013;-83
2023/04/08 03:12:46;;;;;;;19.58;11.75;;;;;;;3.17;100.00;93146.09;2573436;22;20083;-82
2023/04/08 03:13:47;;;;;;;18.42;11.57;;;;;;;3.16;100.00;93149.09;2573260;22;20432;-82
2023/04/08 03:14:49;;;;;;;18.20;11.43;;;;;;;3.12;100.00;93145.69;2572909;22;20340;-82
2023/04/08 03:15:50;;;;;;;16.30;11.52;;;;;;;3.10;100.00;93142.63;2573065;22;20128;-82
2023/04/08 03:16:52;;;;;;;21.55;11.85;;;;;;;3.07;100.00;93138.84;2573090;22;20750;-83
2023/04/08 03:17:53;;;;;;;19.75;11.98;;;;;;;3.06;100.00;93142.59;2573315;22;20047;-82
2023/04/08 03:18:54;;;;;;;19.60;11.90;;;;;;;3.07;100.00;93146.00;2572720;22;20087;-83
2023/04/08 03:19:55;;;;;;;19.05;11.88;;;;;;;3.06;100.00;93147.13;2585121;23;20034;-82
2023/04/08 03:20:56;;;;;;;22.15;11.80;;;;;;;3.06;100.00;93141.84;2572690;23;20036;-83
2023/04/08 03:21:58;;;;;;;18.17;11.82;;;;;;;3.05;100.00;93143.75;2572482;22;20329;-82
2023/04/08 03:22:59;;;;;;;18.50;11.18;;;;;;;3.02;100.00;93145.22;2573222;22;20529;-84
2023/04/08 03:24:00;;;;;;;17.60;11.18;;;;;;;3.08;100.00;93139.63;2572855;23;20007;-82
2023/04/08 03:25:02;;;;;;;21.33;11.93;;;;;;;3.09;100.00;93147.16;2572541;23;20004;-83
2023/04/08 03:26:03;;;;;;;17.88;11.57;;;;;;;3.07;100.00;93146.75;2585292;22;20082;-82
2023/04/08 03:27:04;;;;;;;19.85;11.68;;;;;;;3.09;100.00;93149.06;2597865;22;20003;-83
2023/04/08 03:28:05;;;;;;;20.90;11.85;;;;;;;3.06;100.00;93144.50;2597643;22;20007;-82
2023/04/08 03:29:07;;;;;;;19.92;11.93;;;;;;;3.08;100.00;93144.91;2572660;22;20039;-82
2023/04/08 03:30:08;;;;;;;20.13;12.32;;;;;;;3.02;100.00;93147.88;2572124;22;20000;-83
2023/04/08 03:31:09;;;;;;;20.17;12.05;;;;;;;3.03;100.00;93146.75;2570417;22;20437;-84
2023/04/08 03:32:11;;;;;;;20.70;11.93;;;;;;;3.04;100.00;93147.50;2569052;23;20008;-83
2023/04/08 03:33:12;;;;;;;23.30;12.57;;;;;;;3.05;100.00;93153.53;2569693;22;20123;-83
2023/04/08 03:34:13;;;;;;;21.02;11.98;;;;;;;3.12;100.00;93154.38;2581630;22;20438;-82
2023/04/08 03:35:14;;;;;;;21.05;12.48;;;;;;;3.06;100.00;93145.25;2581891;22;20080;-81
2023/04/08 03:36:15;;;;;;;20.10;12.43;;;;;;;3.07;100.00;93148.66;2581958;22;20007;-82
2023/04/08 03:37:17;;;;;;;20.42;11.73;;;;;;;3.06;100.00;93149.78;2582212;22;20484;-82
2023/04/08 03:38:18;;;;;;;22.15;12.50;;;;;;;3.06;100.00;93155.81;2569900;22;20015;-82
2023/04/08 03:39:22;;;;;;;17.73;11.60;;;;;;;3.10;100.00;93151.31;2594111;22;20007;-82
2023/04/08 03:40:25;;;;;;;18.55;12.00;;;;;;;3.11;100.00;93150.19;2594402;22;20007;-83
2023/04/08 03:41:26;;;;;;;23.65;11.88;;;;;;;3.11;100.00;93158.09;2581661;22;20386;-82
2023/04/08 03:42:27;;;;;;;21.85;12.18;;;;;;;3.16;100.00;93157.00;2581683;22;20000;-84
2023/04/08 03:43:30;;;;;;;20.17;12.25;;;;;;;3.10;100.00;93153.97;2581867;22;20030;-82
2023/04/08 03:44:31;;;;;;;20.92;12.23;;;;;;;3.11;100.00;93154.72;2569957;22;20012;-82
2023/04/08 03:45:33;;;;;;;19.83;11.38;;;;;;;3.13;100.00;93155.88;2581866;22;20074;-85
2023/04/08 03:46:35;;;;;;;19.17;12.27;;;;;;;3.13;100.00;93155.88;2569374;22;20434;-84
2023/04/08 03:47:36;;;;;;;21.63;11.38;;;;;;;3.15;100.00;93160.78;2570038;22;20054;-82
2023/04/08 03:48:37;;;;;;;18.80;11.02;;;;;;;3.11;100.00;93154.72;2581839;22;20000;-82
2023/04/08 03:49:39;;;;;;;21.23;12.35;;;;;;;3.06;100.00;93160.34;2569635;22;20008;-83
2023/04/08 03:50:40;;;;;;;20.42;11.80;;;;;;;3.06;100.00;93157.69;2569498;22;20032;-82
2023/04/08 03:51:41;;;;;;;19.88;11.95;;;;;;;3.14;100.00;93156.63;2569101;23;20011;-83
2023/04/08 03:52:43;;;;;;;19.83;11.50;;;;;;;3.16;100.00;93157.00;2569149;22;20016;-83
2023/04/08 03:53:44;;;;;;;17.38;10.98;;;;;;;3.18;100.00;93155.53;2569732;22;20469;-84
2023/04/08 03:54:45;;;;;;;19.58;11.57;;;;;;;3.22;100.00;93150.28;2582009;22;20066;-84
2023/04/08 03:55:49;;;;;;;17.35;11.13;;;;;;;3.21;100.00;93154.03;2581736;22;20007;-84
2023/04/08 03:56:51;;;;;;;18.80;11.65;;;;;;;3.20;100.00;93157.78;2570727;22;20004;-82
2023/04/08 03:57:52;;;;;;;21.20;12.77;;;;;;;3.23;100.00;93152.53;2581989;22;20004;-83
2023/04/08 03:58:54;;;;;;;20.48;10.85;;;;;;;3.18;100.00;93149.50;2582126;22;20000;-83
2023/04/08 03:59:55;;;;;;;20.27;11.20;;;;;;;3.16;100.00;93154.38;2607432;22;20007;-83
2023/04/08 04:00:56;;;;;;;21.90;12.85;;;;;;;3.13;100.00;93152.47;2582060;22;20335;-82
2023/04/08 04:01:57;;;;;;;19.92;11.82;;;;;;;3.10;100.00;93147.91;2569697;22;20028;-83
2023/04/08 04:03:00;;;;;;;17.77;11.35;;;;;;;3.11;100.00;93149.44;2581583;22;20430;-83
2023/04/08 04:04:02;;;;;;;21.63;12.45;;;;;;;3.12;100.00;93145.69;2570168;22;20011;-83
2023/04/08 04:05:05;;;;;;;19.35;12.02;;;;;;;3.11;100.00;93150.19;2570287;22;20000;-83
2023/04/08 04:06:06;;;;;;;17.65;11.70;;;;;;;3.09;100.00;93151.69;2582150;22;20378;-83
2023/04/08 04:07:07;;;;;;;19.25;11.80;;;;;;;3.07;100.00;93146.00;2582122;22;20205;-83
2023/04/08 04:08:08;;;;;;;18.27;11.57;;;;;;;3.10;100.00;93153.19;2581884;22;20031;-83
2023/04/08 04:09:10;;;;;;;22.17;12.07;;;;;;;3.06;100.00;93157.69;2594739;22;20361;-83
2023/04/08 04:10:11;;;;;;;21.02;12.18;;;;;;;3.07;100.00;93148.66;2582414;22;20058;-82
2023/04/08 04:11:12;;;;;;;18.75;11.18;;;;;;;3.00;100.00;93152.00;2594792;22;20434;-82
2023/04/08 04:12:15;;;;;;;18.20;11.90;;;;;;;3.01;100.00;93151.63;2595067;22;20034;-83
2023/04/08 04:13:18;;;;;;;18.17;10.82;;;;;;;3.02;100.00;93152.38;2594599;22;20011;-83
2023/04/08 04:14:19;;;;;;;21.20;11.60;;;;;;;3.04;100.00;93150.16;2594927;22;20311;-83
2023/04/08 04:15:20;;;;;;;18.65;11.40;;;;;;;3.07;100.00;93159.22;2594662;22;20034;-84
2023/04/08 04:16:21;;;;;;;19.20;11.82;;;;;;;3.07;100.00;93159.22;2594422;22;20004;-83
2023/04/08 04:17:22;;;;;;;18.08;10.50;;;;;;;3.06;100.00;93153.16;2594679;22;20035;-83
2023/04/08 04:18:23;;;;;;;17.92;10.65;;;;;;;3.03;100.00;93154.69;2594812;22;20003;-82
2023/04/08 04:19:24;;;;;;;17.40;10.43;;;;;;;3.02;100.00;93155.03;2594410;22;20003;-82
2023/04/08 04:20:25;;;;;;;21.23;10.98;;;;;;;2.98;100.00;93156.88;2607495;22;20377;-83
2023/04/08 04:21:26;;;;;;;19.17;11.13;;;;;;;3.02;100.00;93157.66;2581917;22;20004;-82
2023/04/08 04:22:27;;;;;;;20.98;11.52;;;;;;;2.99;100.00;93158.41;2569630;23;20016;-82
2023/04/08 04:23:29;;;;;;;19.50;12.23;;;;;;;2.97;100.00;93153.50;2569314;23;20474;-82
2023/04/08 04:24:31;;;;;;;21.40;11.80;;;;;;;2.97;100.00;93161.41;2582444;22;20003;-83
2023/04/08 04:25:32;;;;;;;20.27;11.93;;;;;;;2.95;100.00;93157.63;2594887;22;20009;-83
2023/04/08 04:26:34;;;;;;;20.70;12.18;;;;;;;2.94;100.00;93167.44;2594520;22;20004;-83
2023/04/08 04:27:35;;;;;;;21.10;12.93;;;;;;;2.92;100.00;93161.00;2582147;22;20008;-82
2023/04/08 04:28:37;;;;;;;20.50;12.85;;;;;;;2.97;100.00;93165.94;2581934;22;20492;-83
2023/04/08 04:29:38;;;;;;;20.38;12.63;;;;;;;2.97;100.00;93169.31;2582571;22;20007;-84
2023/04/08 04:30:39;;;;;;;25.48;13.77;;;;;;;2.96;100.00;93165.19;2581971;22;20000;-84
2023/04/08 04:31:41;;;;;;;25.63;13.68;;;;;;;2.97;100.00;93168.56;2569386;22;20047;-82
2023/04/08 04:32:44;;;;;;;25.30;13.57;;;;;;;2.98;100.00;93165.56;2569800;22;20004;-82
2023/04/08 04:33:46;;;;;;;21.25;13.05;;;;;;;2.99;100.00;93166.34;2570483;22;20008;-82
2023/04/08 04:34:47;;;;;;;22.13;13.40;;;;;;;2.96;100.00;93178.38;2582114;22;20004;-82
2023/04/08 04:35:48;;;;;;;21.77;12.98;;;;;;;2.97;100.00;93164.03;2569059;22;20068;-83
2023/04/08 04:36:50;;;;;;;21.38;13.13;;;;;;;2.99;100.00;93167.09;2582100;22;20007;-83
2023/04/08 04:37:51;;;;;;;22.63;13.15;;;;;;;3.03;100.00;93165.25;2582345;22;20042;-84
2023/04/08 04:38:52;;;;;;;18.00;12.23;;;;;;;3.00;100.00;93167.84;2569826;22;20108;-83
2023/04/08 04:39:53;;;;;;;20.98;12.75;;;;;;;2.99;100.00;93171.63;2569584;23;20092;-83
2023/04/08 04:40:54;;;;;;;22.23;13.07;;;;;;;2.99;100.00;93169.72;2581927;22;20000;-83
2023/04/08 04:41:55;;;;;;;22.70;12.40;;;;;;;2.96;100.00;93165.19;2582174;22;20038;-84
2023/04/08 04:42:56;;;;;;;20.65;12.30;;;;;;;2.97;100.00;93160.66;2569222;22;20001;-83
2023/04/08 04:43:58;;;;;;;24.48;13.60;;;;;;;2.94;100.00;93164.81;2569094;23;20008;-83
2023/04/08 04:44:59;;;;;;;23.60;13.38;;;;;;;2.94;100.00;93161.38;2569984;22;20139;-81
2023/04/08 04:46:02;;;;;;;21.77;13.15;;;;;;;2.91;100.00;93162.13;2581971;22;20577;-83
2023/04/08 04:47:03;;;;;;;24.45;12.63;;;;;;;2.92;100.00;93164.38;2582235;22;20459;-82
2023/04/08 04:48:04;;;;;;;20.65;12.93;;;;;;;2.91;100.00;93164.75;2581759;22;20004;-82
2023/04/08 04:49:06;;;;;;;19.63;11.85;;;;;;;2.88;100.00;93171.53;2582152;22;20008;-83
2023/04/08 04:50:09;;;;;;;21.08;12.75;;;;;;;2.92;100.00;93167.03;2569876;22;20447;-82
2023/04/08 04:51:14;;;;;;;21.48;11.93;;;;;;;2.90;100.00;93166.66;2570758;22;20088;-82
2023/04/08 04:52:18;;;;;;;21.85;12.45;;;;;;;2.87;100.00;93169.25;2570905;22;20458;-83
2023/04/08 04:53:21;;;;;;;18.40;11.73;;;;;;;2.81;100.00;93168.84;2570799;22;20119;-82
2023/04/08 04:54:22;;;;;;;20.27;11.73;;;;;;;2.81;100.00;93166.19;2582648;22;20007;-85
2023/04/08 04:55:24;;;;;;;21.52;12.30;;;;;;;2.78;100.00;93166.94;2582029;22;20458;-82
2023/04/08 04:56:25;;;;;;;20.67;12.02;;;;;;;2.78;100.00;93167.69;2582144;22;20000;-82
2023/04/08 04:57:26;;;;;;;21.13;11.85;;;;;;;2.82;100.00;93164.31;2569611;22;20007;-83
2023/04/08 04:58:29;;;;;;;18.92;11.52;;;;;;;2.78;100.00;93172.19;2569595;23;20004;-82
2023/04/08 04:59:30;;;;;;;21.85;12.45;;;;;;;2.78;100.00;93169.56;2582350;22;20008;-83
2023/04/08 05:00:32;;;;;;;22.35;12.60;;;;;;;2.83;100.00;93173.75;2570069;22;20019;-81
2023/04/08 05:01:33;;;;;;;20.27;12.55;;;;;;;2.87;100.00;93174.53;2569774;22;20489;-82
2023/04/08 05:02:34;;;;;;;19.63;11.50;;;;;;;2.84;100.00;93162.81;2569732;22;20454;-82
2023/04/08 05:03:36;;;;;;;23.95;12.20;;;;;;;2.84;100.00;93169.97;2569396;22;20439;-83
2023/04/08 05:04:37;;;;;;;18.75;12.00;;;;;;;2.88;100.00;93170.75;2582415;22;20007;-82
2023/04/08 05:05:38;;;;;;;20.27;11.82;;;;;;;2.90;100.00;93177.22;2569520;22;20087;-83